Time;durP1;ratioP1;P1;durP2;ratioP2;P2;SDS_P1;SDS_P2;PMS_P1;PMS_P2;Temp;Humidity;BMP_temperature;BMP_pressure;BME280_temperature;BME280_humidity;BME280_pressure;Samples;Min_cycle;Max_cycle;Signal;HPM_P1;HPM_P2
2022/09/21 00:01:54;;;;;;;4.83;2.33;;;;;;;;;;4341462;33;20663;-55
2022/09/21 00:04:21;;;;;;;7.97;2.60;;;;;;;;;;4341803;33;20871;-53
2022/09/21 00:06:50;;;;;;;3.47;2.67;;;;;;;;;;4340835;33;20260;-53
2022/09/21 00:09:17;;;;;;;4.07;2.67;;;;;;;;;;4342131;33;20269;-54
2022/09/21 00:11:44;;;;;;;4.63;3.07;;;;;;;;;;4341759;33;20754;-53
2022/09/21 00:14:13;;;;;;;6.47;2.53;;;;;;;;;;4335629;33;20274;-52
2022/09/21 00:16:41;;;;;;;9.20;2.63;;;;;;;;;;4341619;33;20234;-52
2022/09/21 00:19:08;;;;;;;5.07;3.10;;;;;;;;;;4341823;33;20321;-52
2022/09/21 00:21:36;;;;;;;4.43;2.50;;;;;;;;;;4341433;33;20226;-52
2022/09/21 00:24:05;;;;;;;3.50;2.93;;;;;;;;;;4341788;33;20794;-53
2022/09/21 00:26:33;;;;;;;4.17;2.83;;;;;;;;;;4342078;33;20249;-54
2022/09/21 00:29:02;;;;;;;8.53;2.57;;;;;;;;;;4341407;33;20348;-53
2022/09/21 00:31:31;;;;;;;4.93;2.77;;;;;;;;;;4341727;33;20301;-53
2022/09/21 00:33:59;;;;;;;9.07;2.63;;;;;;;;;;4341171;33;20801;-54
2022/09/21 00:36:28;;;;;;;4.17;3.13;;;;;;;;;;4341496;33;20223;-54
2022/09/21 00:38:57;;;;;;;4.33;2.90;;;;;;;;;;4341693;33;20301;-52
2022/09/21 00:41:27;;;;;;;7.17;5.40;;;;;;;;;;4342058;33;20277;-54
2022/09/21 00:44:27;;;;;;;8.57;5.47;;;;;;;;;;4341331;33;20294;-52
2022/09/21 00:46:57;;;;;;;5.97;3.30;;;;;;;;;;4341062;33;20279;-54
2022/09/21 00:49:26;;;;;;;6.67;3.63;;;;;;;;;;4351032;32;20348;-53
2022/09/21 00:51:53;;;;;;;4.47;2.83;;;;;;;;;;4358718;32;20234;-53
2022/09/21 00:54:24;;;;;;;2.73;2.03;;;;;;;;;;4356782;32;20519;-54
2022/09/21 00:56:52;;;;;;;11.63;2.53;;;;;;;;;;4344071;33;20305;-53
2022/09/21 00:59:20;;;;;;;4.00;2.10;;;;;;;;;;4343425;32;20278;-53
2022/09/21 01:01:47;;;;;;;3.03;2.10;;;;;;;;;;4356018;32;21014;-54
2022/09/21 01:04:17;;;;;;;5.07;2.40;;;;;;;;;;4343845;33;20278;-54
2022/09/21 01:06:46;;;;;;;2.67;2.00;;;;;;;;;;4333824;33;20402;-53
2022/09/21 01:09:14;;;;;;;4.10;2.50;;;;;;;;;;4323690;33;20269;-53
2022/09/21 01:11:50;;;;;;;5.10;2.67;;;;;;;;;;4329299;33;20255;-54
2022/09/21 01:14:41;;;;;;;5.53;3.20;;;;;;;;;;4343570;33;20318;-54
2022/09/21 01:17:16;;;;;;;8.63;3.97;;;;;;;;;;4343511;33;20571;-53
2022/09/21 01:20:20;;;;;;;4.83;3.00;;;;;;;;;;4343776;33;20583;-54
2022/09/21 01:23:02;;;;;;;6.40;2.93;;;;;;;;;;4342256;33;20268;-53
2022/09/21 01:25:39;;;;;;;5.60;3.37;;;;;;;;;;4343648;33;20307;-53
2022/09/21 01:28:21;;;;;;;5.10;2.67;;;;;;;;;;4343324;33;20264;-53
2022/09/21 01:30:52;;;;;;;5.63;2.50;;;;;;;;;;4343140;33;20238;-53
2022/09/21 01:33:26;;;;;;;7.13;3.30;;;;;;;;;;4343428;33;20258;-53
2022/09/21 01:35:57;;;;;;;3.80;3.00;;;;;;;;;;4342938;33;20766;-54
2022/09/21 01:38:28;;;;;;;6.13;3.40;;;;;;;;;;4344037;33;20688;-55
2022/09/21 01:40:59;;;;;;;12.70;3.00;;;;;;;;;;4343468;33;20330;-52
2022/09/21 01:43:32;;;;;;;5.60;2.80;;;;;;;;;;4343291;33;20297;-52
2022/09/21 01:46:02;;;;;;;3.40;2.67;;;;;;;;;;4343397;33;20246;-53
2022/09/21 01:48:34;;;;;;;5.60;2.80;;;;;;;;;;4345540;32;20278;-53
2022/09/21 01:51:04;;;;;;;11.13;2.80;;;;;;;;;;4352987;32;20289;-53
2022/09/21 01:53:35;;;;;;;9.90;3.50;;;;;;;;;;4343261;33;20262;-53
2022/09/21 01:56:07;;;;;;;5.10;3.03;;;;;;;;;;4343022;33;20237;-54
2022/09/21 01:58:39;;;;;;;8.70;3.30;;;;;;;;;;4342930;33;20237;-54
2022/09/21 02:01:11;;;;;;;7.37;2.97;;;;;;;;;;4343167;33;20380;-56
2022/09/21 02:03:42;;;;;;;10.00;2.93;;;;;;;;;;4343085;33;20225;-55
2022/09/21 02:06:13;;;;;;;7.03;2.50;;;;;;;;;;4342406;33;20675;-52
2022/09/21 02:08:40;;;;;;;3.77;3.07;;;;;;;;;;4343147;33;20745;-55
2022/09/21 02:11:11;;;;;;;5.77;2.80;;;;;;;;;;4342668;33;20301;-54
2022/09/21 02:13:43;;;;;;;5.70;3.27;;;;;;;;;;4342974;33;20671;-54
2022/09/21 02:16:29;;;;;;;4.23;3.03;;;;;;;;;;4342341;33;20235;-54
2022/09/21 02:19:09;;;;;;;9.63;3.37;;;;;;;;;;4342385;33;20316;-53
2022/09/21 02:21:48;;;;;;;6.13;3.53;;;;;;;;;;4342756;33;20747;-56
2022/09/21 02:24:25;;;;;;;11.93;2.87;;;;;;;;;;4342975;33;20296;-53
2022/09/21 02:27:01;;;;;;;3.20;2.80;;;;;;;;;;4342856;33;20782;-54
2022/09/21 02:29:35;;;;;;;8.10;2.90;;;;;;;;;;4343018;33;20309;-54
2022/09/21 02:32:10;;;;;;;7.77;3.60;;;;;;;;;;4342452;33;20227;-54
2022/09/21 02:34:45;;;;;;;5.60;3.43;;;;;;;;;;4343066;33;20302;-54
2022/09/21 02:37:19;;;;;;;4.97;2.87;;;;;;;;;;4342861;33;20238;-53
2022/09/21 02:39:55;;;;;;;5.07;3.40;;;;;;;;;;4342899;33;20346;-53
2022/09/21 02:42:27;;;;;;;4.53;3.17;;;;;;;;;;4342654;33;20305;-54
2022/09/21 02:45:02;;;;;;;6.53;2.93;;;;;;;;;;4342656;33;20246;-54
2022/09/21 02:47:36;;;;;;;6.30;3.00;;;;;;;;;;4341945;33;20277;-53
2022/09/21 02:50:07;;;;;;;10.20;2.63;;;;;;;;;;4354692;32;20246;-54
2022/09/21 02:52:35;;;;;;;5.80;3.37;;;;;;;;;;4357502;32;20628;-53
2022/09/21 02:55:04;;;;;;;6.37;3.53;;;;;;;;;;4355998;32;20690;-54
2022/09/21 02:57:31;;;;;;;7.83;3.17;;;;;;;;;;4341883;33;20591;-52
2022/09/21 02:59:58;;;;;;;5.73;3.30;;;;;;;;;;4342692;33;20251;-53
2022/09/21 03:02:38;;;;;;;5.27;2.80;;;;;;;;;;4341871;33;20392;-52
2022/09/21 03:05:06;;;;;;;7.77;3.87;;;;;;;;;;4341948;33;20241;-53
2022/09/21 03:07:33;;;;;;;5.37;3.57;;;;;;;;;;4327240;33;20550;-52
2022/09/21 03:10:00;;;;;;;9.53;3.50;;;;;;;;;;4327239;33;20255;-53
2022/09/21 03:12:27;;;;;;;4.97;3.63;;;;;;;;;;4327103;33;20548;-52
2022/09/21 03:14:55;;;;;;;7.50;3.80;;;;;;;;;;4327185;33;20654;-52
2022/09/21 03:17:21;;;;;;;5.37;3.07;;;;;;;;;;4327079;33;20227;-54
2022/09/21 03:19:50;;;;;;;7.37;4.00;;;;;;;;;;4327351;33;20678;-54
2022/09/21 03:22:17;;;;;;;9.27;3.80;;;;;;;;;;4327011;33;20353;-55
2022/09/21 03:24:47;;;;;;;6.93;3.43;;;;;;;;;;4327720;33;20302;-53
2022/09/21 03:27:15;;;;;;;6.00;3.83;;;;;;;;;;4327787;33;20241;-53
2022/09/21 03:29:42;;;;;;;6.00;2.87;;;;;;;;;;4327837;33;20304;-52
2022/09/21 03:32:09;;;;;;;10.07;3.60;;;;;;;;;;4326851;33;20246;-53
2022/09/21 03:34:36;;;;;;;10.27;3.27;;;;;;;;;;4327564;33;20329;-53
2022/09/21 03:37:06;;;;;;;4.37;3.10;;;;;;;;;;4327364;33;20245;-54
2022/09/21 03:39:33;;;;;;;6.03;3.63;;;;;;;;;;4327235;33;20835;-53
2022/09/21 03:42:01;;;;;;;5.13;3.27;;;;;;;;;;4327588;33;20295;-53
2022/09/21 03:44:28;;;;;;;3.87;3.13;;;;;;;;;;4337764;33;20246;-52
2022/09/21 03:46:56;;;;;;;5.40;3.20;;;;;;;;;;4340971;33;20667;-52
2022/09/21 03:49:23;;;;;;;6.03;3.60;;;;;;;;;;4349474;33;20327;-52
2022/09/21 03:51:50;;;;;;;5.53;3.27;;;;;;;;;;4346011;33;20239;-53
2022/09/21 03:54:19;;;;;;;7.63;3.27;;;;;;;;;;4341918;33;20241;-53
2022/09/21 03:56:46;;;;;;;4.07;3.20;;;;;;;;;;4341478;33;20823;-53
2022/09/21 03:59:13;;;;;;;8.80;3.50;;;;;;;;;;4341396;33;20803;-54
2022/09/21 04:01:40;;;;;;;6.17;3.57;;;;;;;;;;4341407;33;20302;-52
2022/09/21 04:04:07;;;;;;;6.37;3.50;;;;;;;;;;4341506;33;20322;-54
2022/09/21 04:06:34;;;;;;;5.33;3.63;;;;;;;;;;4341289;33;20262;-55
2022/09/21 04:09:02;;;;;;;7.87;3.43;;;;;;;;;;4341198;33;20291;-53
2022/09/21 04:11:32;;;;;;;7.13;3.53;;;;;;;;;;4341102;33;20250;-53
2022/09/21 04:13:59;;;;;;;4.97;3.77;;;;;;;;;;4341259;33;20227;-53
2022/09/21 04:16:27;;;;;;;8.33;4.10;;;;;;;;;;4340928;33;20244;-53
2022/09/21 04:18:54;;;;;;;11.73;6.40;;;;;;;;;;4341562;33;20246;-53
2022/09/21 04:21:21;;;;;;;13.10;6.13;;;;;;;;;;4340927;33;20249;-52
2022/09/21 04:23:49;;;;;;;33.17;6.70;;;;;;;;;;4344224;33;20285;-52
2022/09/21 04:26:21;;;;;;;12.57;4.53;;;;;;;;;;4344499;33;20345;-52
2022/09/21 04:28:50;;;;;;;14.63;4.13;;;;;;;;;;4344577;33;20226;-53
2022/09/21 04:31:17;;;;;;;15.70;4.23;;;;;;;;;;4344049;33;20262;-53
2022/09/21 04:33:43;;;;;;;5.47;2.90;;;;;;;;;;4344270;33;20246;-54
2022/09/21 04:36:10;;;;;;;11.50;3.80;;;;;;;;;;4344045;33;20254;-53
2022/09/21 04:38:39;;;;;;;25.60;3.73;;;;;;;;;;4343889;33;20297;-53
2022/09/21 04:41:06;;;;;;;7.70;4.97;;;;;;;;;;4342641;33;20380;-53
2022/09/21 04:43:33;;;;;;;15.70;5.73;;;;;;;;;;4343905;33;20613;-53
2022/09/21 04:46:06;;;;;;;18.57;7.87;;;;;;;;;;4343733;33;20325;-53
2022/09/21 04:48:33;;;;;;;22.23;6.90;;;;;;;;;;4356017;32;20250;-54
2022/09/21 04:51:00;;;;;;;17.93;7.30;;;;;;;;;;4358448;32;20265;-53
2022/09/21 04:53:27;;;;;;;13.80;6.77;;;;;;;;;;4358915;32;20642;-54
2022/09/21 04:55:54;;;;;;;21.30;7.40;;;;;;;;;;4352461;32;20258;-53
2022/09/21 04:58:21;;;;;;;12.03;6.50;;;;;;;;;;4343864;33;20259;-53
2022/09/21 05:00:49;;;;;;;18.10;6.80;;;;;;;;;;4343544;33;20676;-54
2022/09/21 05:03:18;;;;;;;19.27;7.33;;;;;;;;;;4342956;33;20238;-54
2022/09/21 05:05:49;;;;;;;13.20;5.67;;;;;;;;;;4338347;33;20308;-53
2022/09/21 05:08:16;;;;;;;17.23;6.37;;;;;;;;;;4328165;33;20338;-54
2022/09/21 05:10:43;;;;;;;15.20;6.33;;;;;;;;;;4328152;33;20342;-53
2022/09/21 05:13:10;;;;;;;14.57;7.53;;;;;;;;;;4327247;33;20374;-54
2022/09/21 05:15:38;;;;;;;11.53;5.93;;;;;;;;;;4327606;33;20277;-53
2022/09/21 05:18:05;;;;;;;17.63;5.67;;;;;;;;;;4341690;33;20266;-55
2022/09/21 05:20:33;;;;;;;12.27;6.60;;;;;;;;;;4343037;33;20293;-54
2022/09/21 05:23:01;;;;;;;23.83;6.93;;;;;;;;;;4342713;33;20671;-53
2022/09/21 05:25:29;;;;;;;16.97;6.90;;;;;;;;;;4342595;33;20303;-54
2022/09/21 05:31:31;;;;;;;30.03;7.80;;;;;;;;;;4287551;33;20915;-54
2022/09/21 05:34:05;;;;;;;22.73;8.67;;;;;;;;;;4335197;33;20242;-54
2022/09/21 05:36:44;;;;;;;16.07;7.83;;;;;;;;;;4341888;33;20270;-53
2022/09/21 05:39:12;;;;;;;35.17;8.10;;;;;;;;;;4327340;33;20334;-55
2022/09/21 05:41:39;;;;;;;29.03;9.67;;;;;;;;;;4332346;33;20218;-53
2022/09/21 05:44:07;;;;;;;20.57;6.73;;;;;;;;;;4341969;33;20492;-54
2022/09/21 05:46:39;;;;;;;17.20;7.50;;;;;;;;;;4342426;33;20242;-56
2022/09/21 05:49:14;;;;;;;20.07;8.10;;;;;;;;;;4346509;32;20914;-55
2022/09/21 05:51:53;;;;;;;19.47;7.00;;;;;;;;;;4342148;33;20251;-53
2022/09/21 05:54:23;;;;;;;25.07;8.73;;;;;;;;;;4341925;33;20321;-53
2022/09/21 05:56:58;;;;;;;20.60;7.07;;;;;;;;;;4341289;33;20231;-54
2022/09/21 05:59:40;;;;;;;18.97;8.60;;;;;;;;;;4341385;33;20239;-52
2022/09/21 06:02:17;;;;;;;24.47;10.47;;;;;;;;;;4341264;33;20281;-53
2022/09/21 06:04:44;;;;;;;20.50;10.90;;;;;;;;;;4341578;33;20262;-53
2022/09/21 06:07:13;;;;;;;22.93;10.37;;;;;;;;;;4341289;33;20269;-52
2022/09/21 06:09:39;;;;;;;24.73;14.37;;;;;;;;;;4340760;33;20280;-53
2022/09/21 06:12:07;;;;;;;28.20;14.67;;;;;;;;;;4341285;33;20318;-54
2022/09/21 06:14:33;;;;;;;22.43;12.93;;;;;;;;;;4341008;33;20282;-52
2022/09/21 06:17:02;;;;;;;31.27;11.53;;;;;;;;;;4340787;32;20639;-54
2022/09/21 06:19:29;;;;;;;22.00;8.27;;;;;;;;;;4341860;33;20769;-54
2022/09/21 06:21:56;;;;;;;15.13;7.80;;;;;;;;;;4342136;33;20556;-54
2022/09/21 06:24:24;;;;;;;16.67;8.27;;;;;;;;;;4341265;33;20254;-53
2022/09/21 06:26:51;;;;;;;14.70;7.20;;;;;;;;;;4341415;33;20560;-54
2022/09/21 06:29:22;;;;;;;11.00;7.47;;;;;;;;;;4341702;33;20250;-53
2022/09/21 06:31:49;;;;;;;20.03;5.67;;;;;;;;;;4341578;33;20270;-54
2022/09/21 06:34:16;;;;;;;14.10;5.97;;;;;;;;;;4341682;33;20329;-54
2022/09/21 06:36:44;;;;;;;18.00;5.13;;;;;;;;;;4341449;33;20230;-53
2022/09/21 06:39:11;;;;;;;12.60;6.03;;;;;;;;;;4340974;33;20289;-54
2022/09/21 06:41:39;;;;;;;7.23;4.47;;;;;;;;;;4339897;33;20663;-53
2022/09/21 06:44:06;;;;;;;5.40;2.50;;;;;;;;;;4340004;33;20269;-55
2022/09/21 06:46:33;;;;;;;5.37;3.10;;;;;;;;;;4339055;33;20272;-53
2022/09/21 06:49:00;;;;;;;8.43;2.90;;;;;;;;;;4345659;32;20394;-53
2022/09/21 06:51:27;;;;;;;9.07;3.30;;;;;;;;;;4355676;32;20261;-54
2022/09/21 06:53:58;;;;;;;4.93;2.90;;;;;;;;;;4343458;32;20259;-53
2022/09/21 06:56:25;;;;;;;3.77;1.87;;;;;;;;;;4340695;33;20259;-54
2022/09/21 06:58:55;;;;;;;5.90;2.93;;;;;;;;;;4339883;33;20242;-53
2022/09/21 07:01:23;;;;;;;3.03;2.13;;;;;;;;;;4339994;33;20254;-54
2022/09/21 07:03:51;;;;;;;4.00;2.20;;;;;;;;;;4340507;33;20835;-53
2022/09/21 07:06:19;;;;;;;4.17;1.20;;;;;;;;;;4340046;32;20268;-54
2022/09/21 07:08:46;;;;;;;3.63;1.20;;;;;;;;;;4337384;32;20616;-55
2022/09/21 07:11:13;;;;;;;10.37;3.17;;;;;;;;;;4334016;33;20351;-53
2022/09/21 07:13:41;;;;;;;12.57;2.23;;;;;;;;;;4340439;33;20317;-54
2022/09/21 07:16:09;;;;;;;8.93;1.83;;;;;;;;;;4341000;33;20323;-54
2022/09/21 07:18:37;;;;;;;1.20;1.10;;;;;;;;;;4340998;33;20361;-53
2022/09/21 07:21:05;;;;;;;2.23;1.87;;;;;;;;;;4340860;33;20265;-53
2022/09/21 07:23:33;;;;;;;4.37;1.33;;;;;;;;;;4340697;33;20239;-54
2022/09/21 07:26:02;;;;;;;5.33;1.50;;;;;;;;;;4340711;33;20289;-53
2022/09/21 07:28:30;;;;;;;16.48;2.10;;;;;;;;;;4340681;32;20434;-53
2022/09/21 07:30:57;;;;;;;9.23;1.17;;;;;;;;;;4339781;33;20979;-53
2022/09/21 07:33:26;;;;;;;3.10;1.60;;;;;;;;;;4342866;32;20281;-53
2022/09/21 07:35:55;;;;;;;2.90;1.83;;;;;;;;;;4339447;33;20384;-53
2022/09/21 07:38:23;;;;;;;1.73;0.90;;;;;;;;;;4340477;33;20274;-54
2022/09/21 07:40:50;;;;;;;8.37;1.30;;;;;;;;;;4340889;33;20588;-53
2022/09/21 07:43:17;;;;;;;12.18;3.05;;;;;;;;;;4339904;33;20682;-54
2022/09/21 07:45:51;;;;;;;80.80;17.70;;;;;;;;;;4339647;33;20238;-54
2022/09/21 07:48:18;;;;;;;28.95;5.80;;;;;;;;;;4341724;33;20300;-53
2022/09/21 07:50:46;;;;;;;22.02;4.80;;;;;;;;;;4354986;33;20700;-53
2022/09/21 07:53:15;;;;;;;65.20;8.73;;;;;;;;;;4339714;32;20256;-53
2022/09/21 07:55:42;;;;;;;15.18;2.42;;;;;;;;;;4338377;33;20264;-53
2022/09/21 08:00:53;;;;;;;22.57;4.87;;;;;;;;;;4339813;33;20276;-53
2022/09/21 08:03:20;;;;;;;18.35;3.62;;;;;;;;;;4341278;33;20248;-52
2022/09/21 08:05:48;;;;;;;23.40;4.03;;;;;;;;;;4340466;32;20379;-52
2022/09/21 08:08:15;;;;;;;7.82;2.28;;;;;;;;;;4343026;33;20231;-53
2022/09/21 08:10:42;;;;;;;5.30;1.10;;;;;;;;;;4341156;32;20255;-53
2022/09/21 08:13:09;;;;;;;11.98;1.25;;;;;;;;;;4353929;32;20659;-54
2022/09/21 08:15:36;;;;;;;12.87;1.73;;;;;;;;;;4340345;33;20271;-54
2022/09/21 08:18:06;;;;;;;2.95;1.77;;;;;;;;;;4339893;33;20286;-53
2022/09/21 08:20:33;;;;;;;2.00;1.58;;;;;;;;;;4340334;33;20255;-53
2022/09/21 08:23:01;;;;;;;5.68;1.95;;;;;;;;;;4341304;33;20248;-54
2022/09/21 08:25:29;;;;;;;2.37;1.62;;;;;;;;;;4340839;33;20623;-54
2022/09/21 08:27:59;;;;;;;6.60;2.50;;;;;;;;;;4341558;33;20597;-52
2022/09/21 08:30:29;;;;;;;6.80;2.20;;;;;;;;;;4341097;33;20254;-53
2022/09/21 08:32:56;;;;;;;2.55;1.85;;;;;;;;;;4341094;33;20473;-53
2022/09/21 08:35:24;;;;;;;5.33;2.23;;;;;;;;;;4341300;33;20294;-53
2022/09/21 08:37:54;;;;;;;3.40;2.23;;;;;;;;;;4341286;33;20713;-53
2022/09/21 08:40:22;;;;;;;2.73;2.03;;;;;;;;;;4341585;33;20246;-53
2022/09/21 08:42:57;;;;;;;3.00;2.10;;;;;;;;;;4341662;33;20274;-53
2022/09/21 08:45:31;;;;;;;2.78;2.33;;;;;;;;;;4342886;33;20323;-55
2022/09/21 08:48:01;;;;;;;1.85;1.67;;;;;;;;;;4342837;33;20597;-54
2022/09/21 08:50:34;;;;;;;9.65;2.17;;;;;;;;;;4357259;32;20278;-53
2022/09/21 08:53:07;;;;;;;2.40;2.08;;;;;;;;;;4357698;32;20249;-55
2022/09/21 08:55:35;;;;;;;5.78;2.30;;;;;;;;;;4357810;32;20265;-54
2022/09/21 08:58:02;;;;;;;4.80;3.12;;;;;;;;;;4357336;32;20231;-53
2022/09/21 09:00:36;;;;;;;2.25;2.05;;;;;;;;;;4357204;32;20254;-54
2022/09/21 09:03:29;;;;;;;2.72;2.35;;;;;;;;;;4357506;32;20260;-54
2022/09/21 09:06:02;;;;;;;2.33;2.12;;;;;;;;;;4343556;32;20258;-53
2022/09/21 09:08:55;;;;;;;3.30;2.08;;;;;;;;;;4327802;33;20714;-54
2022/09/21 09:11:37;;;;;;;2.00;1.80;;;;;;;;;;4327801;33;20265;-53
2022/09/21 09:14:18;;;;;;;3.72;2.40;;;;;;;;;;4328082;33;20516;-54
2022/09/21 09:16:54;;;;;;;2.97;1.67;;;;;;;;;;4328056;33;20227;-54
2022/09/21 09:19:28;;;;;;;8.48;2.80;;;;;;;;;;4328219;33;20243;-54
2022/09/21 09:21:56;;;;;;;2.85;2.20;;;;;;;;;;4338210;33;20277;-54
2022/09/21 09:24:33;;;;;;;2.75;2.20;;;;;;;;;;4342374;33;20745;-55
2022/09/21 09:27:06;;;;;;;2.40;2.20;;;;;;;;;;4342749;33;20239;-54
2022/09/21 09:29:45;;;;;;;2.40;2.08;;;;;;;;;;4342870;33;20265;-54
2022/09/21 09:32:15;;;;;;;3.05;2.22;;;;;;;;;;4342319;33;20250;-53
2022/09/21 09:34:46;;;;;;;3.37;1.65;;;;;;;;;;4342682;33;20256;-53
2022/09/21 09:37:14;;;;;;;3.25;1.75;;;;;;;;;;4342354;33;20618;-54
2022/09/21 09:39:44;;;;;;;4.22;2.10;;;;;;;;;;4342275;33;20255;-53
2022/09/21 09:42:25;;;;;;;2.95;2.37;;;;;;;;;;4342376;33;20238;-56
2022/09/21 09:45:12;;;;;;;6.85;1.75;;;;;;;;;;4342532;33;20270;-55
2022/09/21 09:47:49;;;;;;;10.02;1.75;;;;;;;;;;4342635;33;20779;-55
2022/09/21 09:50:21;;;;;;;4.87;1.60;;;;;;;;;;4355844;32;20759;-55
2022/09/21 09:52:53;;;;;;;2.00;1.23;;;;;;;;;;4357228;32;20309;-54
2022/09/21 09:55:24;;;;;;;2.10;1.20;;;;;;;;;;4357222;32;20775;-54
2022/09/21 09:57:55;;;;;;;1.92;0.88;;;;;;;;;;4356935;32;20590;-54
2022/09/21 10:00:23;;;;;;;1.37;1.02;;;;;;;;;;4357004;32;20302;-55
2022/09/21 10:02:52;;;;;;;5.43;0.98;;;;;;;;;;4357420;32;20270;-55
2022/09/21 10:05:22;;;;;;;2.55;1.25;;;;;;;;;;4355563;32;20268;-54
2022/09/21 10:07:49;;;;;;;1.20;1.10;;;;;;;;;;4342463;33;20242;-55
2022/09/21 10:10:26;;;;;;;5.07;1.10;;;;;;;;;;4342136;33;20687;-53
2022/09/21 10:12:56;;;;;;;1.12;1.00;;;;;;;;;;4342379;33;20222;-52
2022/09/21 10:15:25;;;;;;;1.40;1.15;;;;;;;;;;4342137;33;20653;-54
2022/09/21 10:17:58;;;;;;;2.25;1.27;;;;;;;;;;4341691;33;20433;-53
2022/09/21 10:20:25;;;;;;;0.90;0.90;;;;;;;;;;4341963;33;20430;-53
2022/09/21 10:22:55;;;;;;;4.30;1.33;;;;;;;;;;4341797;33;20249;-54
2022/09/21 10:25:23;;;;;;;1.40;1.20;;;;;;;;;;4341211;33;20293;-53
2022/09/21 10:27:51;;;;;;;3.87;1.48;;;;;;;;;;4341528;33;20277;-54
2022/09/21 10:30:38;;;;;;;3.97;1.52;;;;;;;;;;4341374;33;20367;-54
2022/09/21 10:33:19;;;;;;;1.80;1.30;;;;;;;;;;4341717;33;20281;-54
2022/09/21 10:35:51;;;;;;;2.25;1.25;;;;;;;;;;4341077;33;20654;-53
2022/09/21 10:38:19;;;;;;;2.70;1.58;;;;;;;;;;4341048;33;20738;-54
2022/09/21 10:40:47;;;;;;;1.67;1.58;;;;;;;;;;4341315;33;20279;-53
2022/09/21 10:43:25;;;;;;;3.97;1.42;;;;;;;;;;4341194;33;20361;-53
2022/09/21 10:45:56;;;;;;;1.90;1.50;;;;;;;;;;4341653;33;20553;-55
2022/09/21 10:48:24;;;;;;;1.70;1.30;;;;;;;;;;4343569;32;20223;-54
2022/09/21 10:50:53;;;;;;;2.45;1.10;;;;;;;;;;4356636;32;20262;-53
2022/09/21 10:53:27;;;;;;;8.68;1.50;;;;;;;;;;4355958;32;20301;-53
2022/09/21 10:55:59;;;;;;;3.00;1.70;;;;;;;;;;4356074;32;20584;-53
2022/09/21 10:58:27;;;;;;;2.20;1.73;;;;;;;;;;4356129;32;20313;-55
2022/09/21 11:00:57;;;;;;;1.90;1.55;;;;;;;;;;4355835;32;20687;-52
2022/09/21 11:03:40;;;;;;;1.62;1.33;;;;;;;;;;4356163;32;20218;-53
2022/09/21 11:06:11;;;;;;;5.62;1.37;;;;;;;;;;4343016;32;20282;-54
2022/09/21 11:08:45;;;;;;;1.42;1.30;;;;;;;;;;4326269;33;20348;-53
2022/09/21 11:11:35;;;;;;;3.45;1.25;;;;;;;;;;4325930;33;20350;-54
2022/09/21 11:14:14;;;;;;;2.05;1.30;;;;;;;;;;4333456;33;20338;-54
2022/09/21 11:16:47;;;;;;;5.40;1.42;;;;;;;;;;4341336;33;20218;-53
2022/09/21 11:19:23;;;;;;;2.67;1.77;;;;;;;;;;4341579;33;20441;-55
2022/09/21 11:21:56;;;;;;;7.93;1.90;;;;;;;;;;4341773;33;20547;-54
2022/09/21 11:24:32;;;;;;;6.15;1.40;;;;;;;;;;4340953;33;20320;-55
2022/09/21 11:27:06;;;;;;;1.52;1.27;;;;;;;;;;4340468;33;20585;-53
2022/09/21 11:29:41;;;;;;;1.55;1.40;;;;;;;;;;4340674;33;20316;-53
2022/09/21 11:32:35;;;;;;;1.83;1.50;;;;;;;;;;4340368;33;20265;-54
2022/09/21 11:35:28;;;;;;;2.47;1.40;;;;;;;;;;4339281;33;20646;-54
2022/09/21 11:38:05;;;;;;;1.80;1.55;;;;;;;;;;4340833;33;20294;-53
2022/09/21 11:41:06;;;;;;;3.28;1.80;;;;;;;;;;4341686;33;20463;-53
2022/09/21 11:43:44;;;;;;;2.35;1.67;;;;;;;;;;4341151;33;20950;-53
2022/09/21 11:46:22;;;;;;;3.25;2.55;;;;;;;;;;4341576;33;20254;-54
2022/09/21 11:49:02;;;;;;;2.55;1.77;;;;;;;;;;4345835;33;20350;-55
2022/09/21 11:51:41;;;;;;;2.70;1.50;;;;;;;;;;4356117;32;20329;-54
2022/09/21 11:54:43;;;;;;;4.05;1.92;;;;;;;;;;4355850;33;20234;-55
2022/09/21 11:57:18;;;;;;;4.80;1.75;;;;;;;;;;4345468;32;20254;-52
2022/09/21 12:00:03;;;;;;;1.70;1.30;;;;;;;;;;4355915;33;20241;-53
2022/09/21 12:02:43;;;;;;;1.60;1.00;;;;;;;;;;4356172;32;20226;-53
2022/09/21 12:05:21;;;;;;;1.23;1.12;;;;;;;;;;4355550;33;20284;-54
2022/09/21 12:08:04;;;;;;;1.50;1.15;;;;;;;;;;4341848;33;20241;-53
2022/09/21 12:10:39;;;;;;;1.60;1.50;;;;;;;;;;4340594;33;20349;-54
2022/09/21 12:13:13;;;;;;;5.37;1.52;;;;;;;;;;4340606;33;20248;-54
2022/09/21 12:15:48;;;;;;;1.37;1.10;;;;;;;;;;4340932;33;20242;-52
2022/09/21 12:18:24;;;;;;;2.22;1.52;;;;;;;;;;4340581;33;20680;-54
2022/09/21 12:21:00;;;;;;;5.43;1.23;;;;;;;;;;4341487;33;20242;-53
2022/09/21 12:23:37;;;;;;;1.10;1.00;;;;;;;;;;4341590;33;20222;-53
2022/09/21 12:26:05;;;;;;;1.30;1.20;;;;;;;;;;4340818;33;20314;-54
2022/09/21 12:28:39;;;;;;;1.75;1.10;;;;;;;;;;4340589;33;20246;-54
2022/09/21 12:31:12;;;;;;;1.27;1.12;;;;;;;;;;4340683;33;20261;-53
2022/09/21 12:33:45;;;;;;;1.92;1.55;;;;;;;;;;4340800;33;20747;-53
2022/09/21 12:36:19;;;;;;;1.10;1.00;;;;;;;;;;4341134;33;20644;-52
2022/09/21 12:38:53;;;;;;;2.22;1.65;;;;;;;;;;4340871;33;20708;-54
2022/09/21 12:41:28;;;;;;;1.92;1.25;;;;;;;;;;4340898;33;20700;-53
2022/09/21 12:44:04;;;;;;;1.10;0.98;;;;;;;;;;4342065;33;20288;-54
2022/09/21 12:46:36;;;;;;;2.53;1.35;;;;;;;;;;4343462;33;20295;-53
2022/09/21 12:49:13;;;;;;;1.23;1.12;;;;;;;;;;4349276;32;20234;-52
2022/09/21 12:51:45;;;;;;;2.90;1.15;;;;;;;;;;4358513;32;20301;-52
2022/09/21 12:54:36;;;;;;;2.05;1.50;;;;;;;;;;4357844;32;20242;-53
2022/09/21 12:57:12;;;;;;;2.55;1.10;;;;;;;;;;4358222;32;20231;-53
2022/09/21 12:59:49;;;;;;;1.85;0.82;;;;;;;;;;4357903;32;20261;-53
2022/09/21 13:02:23;;;;;;;0.95;0.90;;;;;;;;;;4358106;32;20226;-54
2022/09/21 13:05:01;;;;;;;3.87;1.30;;;;;;;;;;4357905;32;20245;-54
2022/09/21 13:08:03;;;;;;;1.00;0.90;;;;;;;;;;4341808;32;20301;-52
2022/09/21 13:10:41;;;;;;;6.20;1.60;;;;;;;;;;4317588;33;20270;-54
2022/09/21 13:13:18;;;;;;;3.22;2.28;;;;;;;;;;4342389;33;20286;-53
2022/09/21 13:15:47;;;;;;;4.45;1.33;;;;;;;;;;4343127;33;20238;-55
2022/09/21 13:18:22;;;;;;;1.27;1.00;;;;;;;;;;4342702;33;20305;-54
2022/09/21 13:20:51;;;;;;;2.97;1.45;;;;;;;;;;4342982;33;20681;-53
2022/09/21 13:23:24;;;;;;;7.32;1.30;;;;;;;;;;4342563;33;20639;-53
2022/09/21 13:26:00;;;;;;;1.55;1.45;;;;;;;;;;4342575;33;20290;-53
2022/09/21 13:28:44;;;;;;;1.60;1.33;;;;;;;;;;4342520;33;20651;-53
2022/09/21 13:31:56;;;;;;;1.55;1.30;;;;;;;;;;4342861;33;20238;-54
2022/09/21 13:34:34;;;;;;;6.65;1.77;;;;;;;;;;4296729;33;20271;-53
2022/09/21 13:37:34;;;;;;;1.87;1.20;;;;;;;;;;4296843;33;20319;-54
2022/09/21 13:40:37;;;;;;;1.70;1.12;;;;;;;;;;4334587;33;20339;-55
2022/09/21 13:43:45;;;;;;;1.75;0.90;;;;;;;;;;4342066;33;20237;-53
2022/09/21 13:46:48;;;;;;;1.42;1.30;;;;;;;;;;4336143;33;20322;-53
2022/09/21 13:49:24;;;;;;;2.00;1.52;;;;;;;;;;4349469;32;20305;-53
2022/09/21 13:51:53;;;;;;;4.15;1.45;;;;;;;;;;4357729;32;20320;-55
2022/09/21 13:54:24;;;;;;;1.98;1.60;;;;;;;;;;4357435;32;20317;-52
2022/09/21 13:57:03;;;;;;;1.17;1.05;;;;;;;;;;4357319;32;20282;-52
2022/09/21 13:59:34;;;;;;;2.22;1.60;;;;;;;;;;4357009;32;20633;-54
2022/09/21 14:02:03;;;;;;;2.55;1.25;;;;;;;;;;4353760;32;20245;-53
2022/09/21 14:04:35;;;;;;;2.33;1.75;;;;;;;;;;4342836;33;20325;-54
2022/09/21 14:07:06;;;;;;;2.22;1.20;;;;;;;;;;4330693;33;20259;-53
2022/09/21 14:09:41;;;;;;;3.83;1.58;;;;;;;;;;4331230;33;20265;-55
2022/09/21 14:12:18;;;;;;;2.17;1.15;;;;;;;;;;4341899;33;20234;-53
2022/09/21 14:15:11;;;;;;;3.05;1.33;;;;;;;;;;4342365;33;20309;-53
2022/09/21 14:17:40;;;;;;;1.20;1.10;;;;;;;;;;4342002;33;20362;-53
2022/09/21 14:20:26;;;;;;;2.17;1.60;;;;;;;;;;4341533;33;20898;-54
2022/09/21 14:23:11;;;;;;;2.37;1.73;;;;;;;;;;4342022;33;20645;-53
2022/09/21 14:25:51;;;;;;;1.33;1.20;;;;;;;;;;4342063;33;20297;-53
2022/09/21 14:28:35;;;;;;;1.77;1.40;;;;;;;;;;4341194;33;20642;-55
2022/09/21 14:31:07;;;;;;;2.47;1.42;;;;;;;;;;4341786;33;20695;-54
2022/09/21 14:33:43;;;;;;;3.95;1.65;;;;;;;;;;4341813;33;20227;-54
2022/09/21 14:36:16;;;;;;;3.87;1.95;;;;;;;;;;4341463;33;20755;-53
2022/09/21 14:38:49;;;;;;;2.33;1.67;;;;;;;;;;4341948;33;20254;-53
2022/09/21 14:41:20;;;;;;;2.30;1.83;;;;;;;;;;4342550;33;20796;-54
2022/09/21 14:43:52;;;;;;;9.20;1.77;;;;;;;;;;4342149;33;20223;-55
2022/09/21 14:46:45;;;;;;;4.25;1.67;;;;;;;;;;4342111;33;20263;-53
2022/09/21 14:49:38;;;;;;;2.42;1.60;;;;;;;;;;4348682;32;20262;-55
2022/09/21 14:52:18;;;;;;;10.70;2.15;;;;;;;;;;4341472;32;20288;-54
2022/09/21 14:54:55;;;;;;;1.75;1.48;;;;;;;;;;4356596;32;20634;-52
2022/09/21 14:57:36;;;;;;;1.42;1.25;;;;;;;;;;4356975;32;20273;-54
2022/09/21 15:00:25;;;;;;;2.33;1.60;;;;;;;;;;4342456;32;20254;-54
2022/09/21 15:03:23;;;;;;;2.72;2.10;;;;;;;;;;4341560;33;20227;-54
2022/09/21 15:05:55;;;;;;;3.45;1.75;;;;;;;;;;4341344;33;20325;-54
2022/09/21 15:11:28;;;;;;;2.08;1.60;;;;;;;;;;4341748;33;20547;-52
2022/09/21 15:14:14;;;;;;;3.20;1.50;;;;;;;;;;4341317;33;20234;-53
2022/09/21 15:16:42;;;;;;;6.03;2.62;;;;;;;;;;4342033;33;20283;-54
2022/09/21 15:19:20;;;;;;;3.72;2.10;;;;;;;;;;4341661;33;20258;-53
2022/09/21 15:21:49;;;;;;;4.35;2.67;;;;;;;;;;4341494;33;20262;-53
2022/09/21 15:24:26;;;;;;;1.52;1.20;;;;;;;;;;4341191;33;20258;-52